createdAt,value
2022-08-18T00:01:25.854Z,100542.81
2022-08-18T00:03:59.343Z,100532.06
2022-08-18T00:06:32.570Z,100531.09
2022-08-18T00:09:09.513Z,100526.53
2022-08-18T00:11:43.394Z,100531.19
2022-08-18T00:14:22.239Z,100531.97
2022-08-18T00:16:55.077Z,100545.81
2022-08-18T00:19:46.803Z,100543.50
2022-08-18T00:22:16.305Z,100541.44
2022-08-18T00:24:57.590Z,100535.28
2022-08-18T00:27:29.126Z,100529.16
2022-08-18T00:29:59.507Z,100539.31
2022-08-18T00:32:30.833Z,100525.84
2022-08-18T00:35:09.853Z,100520.22
2022-08-18T00:37:42.864Z,100517.88
2022-08-18T00:40:16.725Z,100519.63
2022-08-18T00:42:54.072Z,100507.44
2022-08-18T00:45:27.925Z,100506.19
2022-08-18T00:47:59.656Z,100507.44
2022-08-18T00:50:42.051Z,100502.97
2022-08-18T00:53:11.829Z,100516.16
2022-08-18T00:55:43.811Z,100519.09
2022-08-18T00:58:28.565Z,100514.91
2022-08-18T01:00:58.868Z,100513.41
2022-08-18T01:03:35.372Z,100515.63
2022-08-18T01:06:06.938Z,100514.59
2022-08-18T01:08:37.315Z,100507.31
2022-08-18T01:11:07.678Z,100513.13
2022-08-18T01:13:40.260Z,100507.59
2022-08-18T01:19:43.151Z,100530.44
2022-08-18T01:22:38.207Z,100538.09
2022-08-18T01:25:26.412Z,100543.38
2022-08-18T01:28:00.706Z,100546.97
2022-08-18T01:30:49.205Z,100544.03
2022-08-18T01:33:19.891Z,100544.53
2022-08-18T01:35:50.147Z,100534.13
2022-08-18T01:38:20.319Z,100525.69
2022-08-18T01:41:17.648Z,100532.53
2022-08-18T01:43:39.007Z,100522.72
2022-08-18T01:46:10.591Z,100498.06
2022-08-18T01:48:41.927Z,100500.31
2022-08-18T01:51:13.672Z,100495.56
2022-08-18T01:53:47.611Z,100490.50
2022-08-18T01:56:19.394Z,100498.78
2022-08-18T01:58:50.789Z,100508.25
2022-08-18T02:01:26.000Z,100526.75
2022-08-18T02:04:33.755Z,100534.09
2022-08-18T02:06:58.662Z,100540.56
2022-08-18T02:09:29.294Z,100543.59
2022-08-18T02:11:57.566Z,100549.22
2022-08-18T02:14:27.262Z,100555.50
2022-08-18T02:17:02.094Z,100552.84
2022-08-18T02:19:37.413Z,100571.00
2022-08-18T02:22:11.705Z,100575.88
2022-08-18T02:24:41.478Z,100584.69
2022-08-18T02:27:12.092Z,100599.31
2022-08-18T02:29:44.994Z,100606.22
2022-08-18T02:32:14.995Z,100603.41
2022-08-18T02:34:45.238Z,100593.53
2022-08-18T02:37:15.734Z,100581.53
2022-08-18T02:39:46.912Z,100577.81
2022-08-18T02:42:17.084Z,100586.31
2022-08-18T02:44:45.826Z,100617.16
2022-08-18T02:47:16.093Z,100656.63
2022-08-18T02:49:47.237Z,100708.91
2022-08-18T02:52:16.667Z,100734.44
2022-08-18T02:54:45.808Z,100713.66
2022-08-18T02:57:14.772Z,100713.84
2022-08-18T02:59:47.345Z,100753.47
2022-08-18T03:02:17.718Z,100771.31
2022-08-18T03:04:46.681Z,100805.09
2022-08-18T03:07:15.704Z,100797.84
2022-08-18T03:09:46.428Z,100770.41
2022-08-18T03:12:20.320Z,100688.34
2022-08-18T03:14:52.541Z,100635.78
2022-08-18T03:17:21.497Z,100609.34
2022-08-18T03:19:51.765Z,100610.94
2022-08-18T03:22:28.655Z,100581.75
2022-08-18T03:24:59.131Z,100598.84
2022-08-18T03:27:29.478Z,100626.91
2022-08-18T03:30:00.321Z,100612.84
2022-08-18T03:32:33.629Z,100502.03
2022-08-18T03:35:03.205Z,100348.56
2022-08-18T03:37:33.461Z,100364.88
2022-08-18T03:40:04.017Z,100356.66
2022-08-18T03:42:34.761Z,100313.22
2022-08-18T03:45:17.270Z,100318.28
2022-08-18T03:47:49.025Z,100335.31
2022-08-18T03:50:20.649Z,100329.63
2022-08-18T03:52:50.707Z,100335.44
2022-08-18T03:55:20.686Z,100343.28
2022-08-18T03:57:53.883Z,100355.66
2022-08-18T04:00:23.857Z,100363.66
2022-08-18T04:02:53.508Z,100373.09
2022-08-18T04:05:24.046Z,100385.41
2022-08-18T04:07:51.946Z,100387.78
2022-08-18T04:10:23.268Z,100373.91
2022-08-18T04:12:52.260Z,100363.63
2022-08-18T04:15:24.601Z,100346.19
2022-08-18T04:18:14.825Z,100336.81
2022-08-18T04:20:57.695Z,100313.16
2022-08-18T04:23:28.464Z,100306.97
2022-08-18T04:26:01.443Z,100295.66
2022-08-18T04:28:31.370Z,100286.28
2022-08-18T04:31:00.321Z,100293.59
2022-08-18T04:33:30.241Z,100300.78
2022-08-18T04:35:59.278Z,100296.38
2022-08-18T04:38:28.210Z,100301.28
2022-08-18T04:41:07.815Z,100322.53
2022-08-18T04:43:41.907Z,100319.78
2022-08-18T04:46:12.107Z,100330.72
2022-08-18T04:48:42.388Z,100346.66
2022-08-18T04:51:13.824Z,100356.63
2022-08-18T04:54:03.709Z,100383.22
2022-08-18T04:56:38.690Z,100401.19
2022-08-18T04:59:09.646Z,100416.47
2022-08-18T05:01:43.033Z,100432.16
2022-08-18T05:04:16.541Z,100423.06
2022-08-18T05:06:46.777Z,100431.63
2022-08-18T05:09:22.850Z,100447.09
2022-08-18T05:11:53.642Z,100432.84
2022-08-18T05:14:23.202Z,100423.09
2022-08-18T05:16:58.475Z,100419.66
2022-08-18T05:19:29.542Z,100428.41
2022-08-18T05:22:02.941Z,100432.31
2022-08-18T05:24:37.202Z,100433.69
2022-08-18T05:27:08.241Z,100436.97
2022-08-18T05:29:41.406Z,100434.28
2022-08-18T05:32:46.550Z,100438.66
2022-08-18T05:35:08.745Z,100456.28
2022-08-18T05:37:57.709Z,100457.94
2022-08-18T05:40:28.246Z,100462.03
2022-08-18T05:43:02.472Z,100444.06
2022-08-18T05:45:31.898Z,100442.13
2022-08-18T05:48:01.905Z,100452.03
2022-08-18T05:50:31.838Z,100456.81
2022-08-18T05:53:13.467Z,100469.81
2022-08-18T05:56:06.997Z,100482.88
2022-08-18T05:58:38.725Z,100498.19
2022-08-18T06:01:09.656Z,100499.91
2022-08-18T06:03:46.753Z,100522.88
2022-08-18T06:06:22.548Z,100538.22
2022-08-18T06:08:59.069Z,100524.66
2022-08-18T06:11:29.401Z,100505.16
2022-08-18T06:14:07.456Z,100524.06
2022-08-18T06:19:52.193Z,100496.50
2022-08-18T06:22:52.173Z,100516.78
2022-08-18T06:25:35.292Z,100536.75
2022-08-18T06:28:17.639Z,100554.16
2022-08-18T06:30:56.058Z,100560.47
2022-08-18T06:33:58.158Z,100553.50
2022-08-18T06:36:37.357Z,100548.38
2022-08-18T06:39:24.398Z,100560.50
2022-08-18T06:41:58.036Z,100552.19
2022-08-18T06:44:39.007Z,100545.47
2022-08-18T06:47:16.989Z,100546.38
2022-08-18T06:50:08.917Z,100559.47
2022-08-18T06:52:39.761Z,100560.81
2022-08-18T06:55:11.792Z,100552.25
2022-08-18T06:57:43.053Z,100541.78
2022-08-18T07:00:38.790Z,100523.31
2022-08-18T07:03:13.910Z,100516.53
2022-08-18T07:06:04.625Z,100558.69
2022-08-18T07:08:44.586Z,100608.66
2022-08-18T07:11:34.549Z,100602.97
2022-08-18T07:14:17.009Z,100577.44
2022-08-18T07:17:07.052Z,100553.19
2022-08-18T07:19:35.698Z,100739.16
2022-08-18T07:22:08.112Z,100801.72
2022-08-18T07:24:42.619Z,100768.28
2022-08-18T07:27:14.329Z,100765.72
2022-08-18T07:30:00.550Z,100783.25
2022-08-18T07:32:38.085Z,100752.25
2022-08-18T07:35:08.725Z,100719.22
2022-08-18T07:37:44.082Z,100725.34
2022-08-18T07:40:45.509Z,100735.84
2022-08-18T07:43:41.064Z,100712.44
2022-08-18T07:46:15.924Z,100682.41
2022-08-18T07:48:45.580Z,100653.34
2022-08-18T07:51:27.067Z,100581.56
2022-08-18T07:54:31.067Z,100501.09
2022-08-18T07:57:06.880Z,100443.88
2022-08-18T07:59:45.462Z,100397.72
2022-08-18T08:02:30.075Z,100355.53
2022-08-18T08:05:03.690Z,100356.06
2022-08-18T08:07:37.933Z,100416.22
2022-08-18T08:10:14.304Z,100435.47
2022-08-18T08:12:45.569Z,100405.31
2022-08-18T08:15:27.089Z,100355.09
2022-08-18T08:18:32.537Z,100338.09
2022-08-18T08:21:11.707Z,100334.34
2022-08-18T08:23:45.426Z,100347.31
2022-08-18T08:26:33.480Z,100315.84
2022-08-18T08:29:09.126Z,100314.88
2022-08-18T08:31:43.375Z,100337.44
2022-08-18T08:34:18.478Z,100350.91
2022-08-18T08:36:49.242Z,100346.63
2022-08-18T08:39:30.012Z,100345.34
2022-08-18T08:42:29.087Z,100342.72
2022-08-18T08:45:06.327Z,100353.09
2022-08-18T08:47:38.068Z,100372.59
2022-08-18T08:50:14.786Z,100368.00
2022-08-18T08:52:49.115Z,100361.34
2022-08-18T08:55:25.921Z,100357.91
2022-08-18T08:58:07.873Z,100342.88
2022-08-18T09:00:37.445Z,100321.00
2022-08-18T09:03:30.363Z,100310.34
2022-08-18T09:06:08.622Z,100279.03
2022-08-18T09:08:48.717Z,100270.06
2022-08-18T09:11:26.633Z,100278.16
2022-08-18T09:14:09.273Z,100278.38
2022-08-18T09:16:59.581Z,100293.38
2022-08-18T09:19:50.688Z,100309.06
2022-08-18T09:22:48.648Z,100311.47
2022-08-18T09:25:36.987Z,100320.09
2022-08-18T09:28:12.468Z,100336.22
2022-08-18T09:30:49.245Z,100335.59
2022-08-18T09:33:35.916Z,100334.75
2022-08-18T09:36:19.956Z,100340.41
2022-08-18T09:39:20.475Z,100334.56
2022-08-18T09:41:55.362Z,100332.59
2022-08-18T09:44:54.000Z,100341.78
2022-08-18T09:47:27.508Z,100359.19
2022-08-18T09:50:26.787Z,100360.00
2022-08-18T09:53:06.802Z,100368.72
2022-08-18T09:55:38.446Z,100351.03
2022-08-18T09:58:14.126Z,100382.16
2022-08-18T10:00:48.415Z,100412.56
2022-08-18T10:03:25.920Z,100372.34
2022-08-18T10:06:01.658Z,100323.59
2022-08-18T10:08:37.800Z,100285.94
2022-08-18T10:11:38.701Z,100320.94
2022-08-18T10:14:19.642Z,100358.34
2022-08-18T10:19:59.786Z,100387.03
2022-08-18T10:22:40.537Z,100440.81
2022-08-18T10:25:23.612Z,100588.69
2022-08-18T10:27:57.441Z,100681.28
2022-08-18T10:30:57.455Z,100679.84
2022-08-18T10:33:44.594Z,100473.50
2022-08-18T10:36:14.552Z,100536.31
2022-08-18T10:38:53.229Z,100509.53
2022-08-18T10:41:33.446Z,100497.28
2022-08-18T10:44:20.824Z,100477.59
2022-08-18T10:46:54.123Z,100413.00
2022-08-18T10:49:26.956Z,100394.78
2022-08-18T10:52:09.003Z,100379.59
2022-08-18T10:54:51.692Z,100354.44
2022-08-18T10:57:41.966Z,100373.09
2022-08-18T11:00:19.957Z,100354.88
2022-08-18T11:06:17.946Z,100362.97
2022-08-18T11:08:55.313Z,100383.66
2022-08-18T11:14:34.027Z,100375.38
2022-08-18T11:17:10.650Z,100384.31
2022-08-18T11:19:43.666Z,100355.28
2022-08-18T11:22:31.091Z,100337.50
2022-08-18T11:27:52.431Z,100323.16
2022-08-18T11:30:31.015Z,100300.53
2022-08-18T11:33:07.490Z,100287.81
2022-08-18T11:35:46.611Z,100265.34
2022-08-18T11:38:20.777Z,100145.91
2022-08-18T11:41:12.607Z,100071.88
2022-08-18T11:43:43.219Z,100048.19
2022-08-18T11:46:31.311Z,100114.31
2022-08-18T11:49:04.422Z,100184.53
2022-08-18T11:51:34.421Z,100186.94
2022-08-18T11:54:23.386Z,100206.72
2022-08-18T11:56:53.034Z,100226.25
2022-08-18T11:59:53.957Z,100216.97
2022-08-18T12:02:26.691Z,100205.88
2022-08-18T12:07:57.698Z,100230.28
2022-08-18T12:10:30.827Z,100247.34
2022-08-18T12:13:04.742Z,100260.44
2022-08-18T12:15:46.660Z,100262.34
2022-08-18T12:18:28.350Z,100285.75
2022-08-18T12:21:03.495Z,100274.38
2022-08-18T12:23:38.983Z,100295.13
2022-08-18T12:26:38.705Z,100330.69
2022-08-18T12:29:11.530Z,100341.66
2022-08-18T12:31:42.781Z,100359.28
2022-08-18T12:34:25.138Z,100366.72
2022-08-18T12:37:05.018Z,100373.94
2022-08-18T12:39:39.391Z,100384.97
2022-08-18T12:42:08.766Z,100367.06
2022-08-18T12:44:43.230Z,100376.66
2022-08-18T12:47:19.526Z,100385.78
2022-08-18T12:49:54.146Z,100389.94
2022-08-18T12:52:27.085Z,100386.34
2022-08-18T12:54:58.242Z,100400.69
2022-08-18T13:00:28.995Z,100428.31
2022-08-18T13:03:00.922Z,100445.66
2022-08-18T13:05:30.939Z,100454.66
2022-08-18T13:08:04.646Z,100475.97
2022-08-18T13:10:46.128Z,100468.63
2022-08-18T13:13:17.756Z,100459.72
2022-08-18T13:15:55.649Z,100460.84
2022-08-18T13:18:29.350Z,100471.00
2022-08-18T13:21:00.153Z,100461.94
2022-08-18T13:23:30.638Z,100467.25
2022-08-18T13:26:02.262Z,100468.03
2022-08-18T13:28:56.645Z,100472.53
2022-08-18T13:32:09.500Z,100471.22
2022-08-18T13:34:43.442Z,100465.44
2022-08-18T13:37:13.334Z,100473.69
2022-08-18T13:39:46.373Z,100464.91
2022-08-18T13:42:26.839Z,100450.34
2022-08-18T13:45:22.999Z,100440.25
2022-08-18T13:47:54.817Z,100448.25
2022-08-18T13:50:31.802Z,100451.88
2022-08-18T13:53:05.803Z,100445.91
2022-08-18T13:55:35.299Z,100441.66
2022-08-18T13:58:17.688Z,100438.47
2022-08-18T14:00:54.885Z,100434.09
2022-08-18T14:03:42.510Z,100424.81
2022-08-18T14:06:15.238Z,100412.66
2022-08-18T14:08:50.823Z,100410.28
2022-08-18T14:11:33.046Z,100416.84
2022-08-18T14:14:10.106Z,100414.19
2022-08-18T14:16:42.687Z,100413.22
2022-08-18T14:19:32.695Z,100405.97
2022-08-18T14:22:21.671Z,100417.50
2022-08-18T14:25:14.474Z,100407.84
2022-08-18T14:27:56.126Z,100403.66
2022-08-18T14:30:26.717Z,100400.63
2022-08-18T14:32:59.929Z,100415.16
2022-08-18T14:36:04.681Z,100415.03
2022-08-18T14:38:23.253Z,100411.09
2022-08-18T14:40:55.579Z,100405.59
2022-08-18T14:43:27.315Z,100404.38
2022-08-18T14:46:16.586Z,100397.53
2022-08-18T14:48:46.470Z,100405.84
2022-08-18T14:51:20.388Z,100408.38
2022-08-18T14:53:57.130Z,100411.59
2022-08-18T14:56:33.750Z,100421.53
2022-08-18T14:59:10.027Z,100427.03
2022-08-18T15:01:42.816Z,100413.44
2022-08-18T15:04:18.630Z,100412.50
2022-08-18T15:06:55.883Z,100419.63
2022-08-18T15:09:27.339Z,100422.38
2022-08-18T15:11:57.571Z,100422.81
2022-08-18T15:14:32.920Z,100430.97
2022-08-18T15:17:14.565Z,100426.56
2022-08-18T15:20:00.477Z,100434.28
2022-08-18T15:22:49.211Z,100433.50
2022-08-18T15:25:37.917Z,100430.72
2022-08-18T15:28:16.569Z,100420.31
2022-08-18T15:30:50.990Z,100434.53
2022-08-18T15:33:27.986Z,100422.28
2022-08-18T15:36:05.313Z,100417.69
2022-08-18T15:38:41.777Z,100418.09
2022-08-18T15:41:12.585Z,100418.16
2022-08-18T15:43:48.090Z,100407.13
2022-08-18T15:46:28.765Z,100418.81
2022-08-18T15:49:07.705Z,100408.72
2022-08-18T15:51:40.983Z,100398.28
2022-08-18T15:54:19.725Z,100403.53
2022-08-18T15:56:58.540Z,100403.28
2022-08-18T15:59:39.933Z,100409.41
2022-08-18T16:02:11.399Z,100402.97
2022-08-18T16:04:44.885Z,100404.69
2022-08-18T16:07:25.078Z,100401.75
2022-08-18T16:12:56.355Z,100399.88
2022-08-18T16:15:26.777Z,100399.53
2022-08-18T16:17:56.738Z,100405.22
2022-08-18T16:20:26.744Z,100407.88
2022-08-18T16:22:59.660Z,100404.75
2022-08-18T16:25:29.372Z,100406.38
2022-08-18T16:28:13.533Z,100409.63
2022-08-18T16:30:44.820Z,100417.78
2022-08-18T16:33:17.529Z,100415.81
2022-08-18T16:35:50.511Z,100418.09
2022-08-18T16:38:21.681Z,100403.44
2022-08-18T16:40:56.220Z,100393.31
2022-08-18T16:43:27.644Z,100386.66
2022-08-18T16:45:57.197Z,100384.59
2022-08-18T16:51:01.663Z,100369.31
2022-08-18T16:53:40.229Z,100364.59
2022-08-18T16:56:17.410Z,100343.78
2022-08-18T16:59:06.061Z,100334.19
2022-08-18T17:02:00.109Z,100318.53
2022-08-18T17:04:34.237Z,100322.63
2022-08-18T17:07:05.980Z,100323.25
2022-08-18T17:09:35.284Z,100325.91
2022-08-18T17:12:07.912Z,100310.09
2022-08-18T17:14:39.087Z,100320.94
2022-08-18T17:17:13.063Z,100333.13
2022-08-18T17:19:42.988Z,100334.97
2022-08-18T17:22:19.953Z,100332.84
2022-08-18T17:24:50.694Z,100337.84
2022-08-18T17:27:37.581Z,100322.81
2022-08-18T17:30:12.149Z,100326.03
2022-08-18T17:32:40.838Z,100310.78
2022-08-18T17:35:14.566Z,100305.28
2022-08-18T17:37:49.582Z,100305.66
2022-08-18T17:40:22.732Z,100294.88
2022-08-18T17:42:54.196Z,100300.84
2022-08-18T17:45:24.334Z,100292.59
2022-08-18T17:47:54.378Z,100290.88
2022-08-18T17:50:44.330Z,100305.59
2022-08-18T17:53:14.251Z,100322.25
2022-08-18T17:55:46.245Z,100335.47
2022-08-18T17:58:19.236Z,100332.47
2022-08-18T18:00:49.169Z,100346.25
2022-08-18T18:03:20.340Z,100343.59
2022-08-18T18:05:53.367Z,100355.78
2022-08-18T18:08:23.263Z,100364.50
2022-08-18T18:11:04.769Z,100382.88
2022-08-18T18:13:35.860Z,100378.03
2022-08-18T18:16:22.149Z,100372.41
2022-08-18T18:19:03.690Z,100364.06
2022-08-18T18:21:53.509Z,100349.25
2022-08-18T18:24:32.807Z,100324.50
2022-08-18T18:27:04.209Z,100311.75
2022-08-18T18:29:38.750Z,100306.03
2022-08-18T18:32:24.985Z,100316.56
2022-08-18T18:35:12.699Z,100320.16
2022-08-18T18:37:48.554Z,100307.09
2022-08-18T18:40:36.226Z,100278.03
2022-08-18T18:43:19.041Z,100270.63
2022-08-18T18:46:18.550Z,100276.78
2022-08-18T18:49:11.102Z,100293.38
2022-08-18T18:51:44.376Z,100295.78
2022-08-18T18:54:21.321Z,100314.59
2022-08-18T18:56:54.063Z,100328.41
2022-08-18T18:59:27.262Z,100312.03
2022-08-18T19:02:33.707Z,100320.16
2022-08-18T19:05:05.185Z,100343.78
2022-08-18T19:07:47.118Z,100358.56
2022-08-18T19:10:33.960Z,100354.66
2022-08-18T19:13:32.513Z,100364.53
2022-08-18T19:16:24.953Z,100360.63
2022-08-18T19:19:37.706Z,100365.00
2022-08-18T19:22:04.397Z,100363.66
2022-08-18T19:24:48.880Z,100366.25
2022-08-18T19:27:23.608Z,100350.53
2022-08-18T19:29:59.838Z,100318.28
2022-08-18T19:32:43.810Z,100294.94
2022-08-18T19:35:15.946Z,100309.72
2022-08-18T19:37:58.624Z,100326.00
2022-08-18T19:40:40.889Z,100332.44
2022-08-18T19:43:13.589Z,100360.44
2022-08-18T19:45:51.778Z,100380.13
2022-08-18T19:48:42.679Z,100379.13
2022-08-18T19:51:13.464Z,100369.56
2022-08-18T19:53:52.451Z,100352.38
2022-08-18T19:56:38.392Z,100338.59
2022-08-18T19:59:21.524Z,100338.56
2022-08-18T20:01:52.488Z,100336.44
2022-08-18T20:04:40.455Z,100333.28
2022-08-18T20:07:15.683Z,100327.53
2022-08-18T20:10:02.486Z,100344.59
2022-08-18T20:12:35.137Z,100363.66
2022-08-18T20:15:13.076Z,100369.81
2022-08-18T20:18:02.014Z,100367.72
2022-08-18T20:20:40.864Z,100374.34
2022-08-18T20:23:28.239Z,100377.84
2022-08-18T20:26:02.766Z,100385.03
2022-08-18T20:28:38.847Z,100404.44
2022-08-18T20:31:16.124Z,100406.75
2022-08-18T20:33:48.649Z,100395.97
2022-08-18T20:36:29.771Z,100383.56
2022-08-18T20:39:00.949Z,100379.16
2022-08-18T20:41:39.110Z,100364.53
2022-08-18T20:44:29.349Z,100343.91
2022-08-18T20:47:03.565Z,100350.09
2022-08-18T20:49:57.736Z,100352.38
2022-08-18T20:52:37.846Z,100338.63
2022-08-18T20:55:17.056Z,100342.66
2022-08-18T20:57:53.502Z,100346.44
2022-08-18T21:00:30.220Z,100346.75
2022-08-18T21:03:02.306Z,100354.06
2022-08-18T21:05:37.483Z,100320.41
2022-08-18T21:08:21.216Z,100315.50
2022-08-18T21:10:54.504Z,100354.44
2022-08-18T21:13:41.670Z,100382.31
2022-08-18T21:16:21.079Z,100393.09
2022-08-18T21:19:20.051Z,100388.28
2022-08-18T21:21:53.198Z,100385.09
2022-08-18T21:24:36.324Z,100378.09
2022-08-18T21:27:12.984Z,100386.88
2022-08-18T21:29:49.306Z,100372.81
2022-08-18T21:32:25.426Z,100368.69
2022-08-18T21:34:55.019Z,100365.25
2022-08-18T21:37:27.406Z,100342.63
2022-08-18T21:40:02.011Z,100339.72
2022-08-18T21:42:43.616Z,100334.63
2022-08-18T21:45:24.190Z,100334.28
2022-08-18T21:47:59.613Z,100317.75
2022-08-18T21:50:31.531Z,100305.28
2022-08-18T21:53:07.692Z,100298.59
2022-08-18T21:55:42.967Z,100281.94
2022-08-18T21:58:17.293Z,100283.66
2022-08-18T22:00:48.925Z,100299.13
2022-08-18T22:03:22.449Z,100316.31
2022-08-18T22:06:05.518Z,100303.44
2022-08-18T22:08:35.482Z,100292.88
2022-08-18T22:11:51.990Z,100278.56
2022-08-18T22:14:29.033Z,100285.63
2022-08-18T22:17:17.417Z,100310.63
2022-08-18T22:19:47.051Z,100332.09
2022-08-18T22:22:36.262Z,100342.88
2022-08-18T22:25:07.189Z,100343.53
2022-08-18T22:27:36.874Z,100344.53
2022-08-18T22:30:06.334Z,100337.66
2022-08-18T22:32:39.839Z,100335.13
2022-08-18T22:35:12.691Z,100336.16
2022-08-18T22:37:46.309Z,100339.81
2022-08-18T22:40:22.062Z,100335.13
2022-08-18T22:42:52.004Z,100328.94
2022-08-18T22:48:08.645Z,100312.72
2022-08-18T22:50:46.577Z,100295.97
2022-08-18T22:53:16.498Z,100289.75
2022-08-18T22:55:47.492Z,100282.00
2022-08-18T22:58:22.094Z,100267.88
2022-08-18T23:01:05.273Z,100269.31
2022-08-18T23:03:41.797Z,100268.47
2022-08-18T23:06:14.298Z,100262.50
2022-08-18T23:08:54.373Z,100268.44
2022-08-18T23:11:26.443Z,100258.16
2022-08-18T23:13:55.459Z,100230.44
2022-08-18T23:16:31.339Z,100196.56
2022-08-18T23:19:36.088Z,100172.97
2022-08-18T23:22:06.318Z,100149.59
2022-08-18T23:24:39.313Z,100126.38
2022-08-18T23:27:10.911Z,100109.31
2022-08-18T23:29:41.925Z,100094.31
2022-08-18T23:32:11.889Z,100110.69
2022-08-18T23:34:40.234Z,100134.59
2022-08-18T23:37:16.726Z,100174.63
2022-08-18T23:39:49.346Z,100184.94
2022-08-18T23:42:19.514Z,100191.75
2022-08-18T23:44:52.220Z,100209.56
2022-08-18T23:47:24.133Z,100218.69
2022-08-18T23:49:55.432Z,100230.91
2022-08-18T23:52:24.425Z,100229.09
2022-08-18T23:54:55.585Z,100230.44
2022-08-18T23:57:25.719Z,100232.38
2022-08-18T23:59:55.126Z,100237.78
